Time;durP1;ratioP1;P1;durP2;ratioP2;P2;SDS_P1;SDS_P2;PMS_P1;PMS_P2;Temp;Humidity;BMP_temperature;BMP_pressure;BME280_temperature;BME280_humidity;BME280_pressure;Samples;Min_cycle;Max_cycle;Signal;HPM_P1;HPM_P2
2022/06/13 00:02:23;;;;;;;;;;;;;;;;;;5015816;28;20307;-30
2022/06/13 00:04:50;;;;;;;;;;;;;;;;;;5015791;28;20341;-30
2022/06/13 00:07:16;;;;;;;;;;;;;;;;;;5015596;28;19921;-30
2022/06/13 00:09:42;;;;;;;;;;;;;;;;;;5015740;28;19921;-30
2022/06/13 00:12:08;;;;;;;;;;;;;;;;;;5016214;28;19921;-30
2022/06/13 00:14:34;;;;;;;;;;;;;;;;;;5016131;28;19918;-31
2022/06/13 00:17:01;;;;;;;;;;;;;;;;;;5015590;28;19979;-30
2022/06/13 00:19:27;;;;;;;;;;;;;;;;;;5016180;28;19932;-30
2022/06/13 00:21:53;;;;;;;;;;;;;;;;;;5015436;28;19921;-30
2022/06/13 00:24:19;;;;;;;;;;;;;;;;;;5015548;28;19914;-30
2022/06/13 00:26:45;;;;;;;;;;;;;;;;;;5015520;28;19912;-30
2022/06/13 00:29:11;;;;;;;;;;;;;;;;;;5015451;28;19913;-30
2022/06/13 00:31:37;;;;;;;;;;;;;;;;;;5015657;28;20310;-30
2022/06/13 00:34:03;;;;;;;;;;;;;;;;;;5015588;28;20365;-30
2022/06/13 00:36:29;;;;;;;;;;;;;;;;;;5015375;28;19932;-30
2022/06/13 00:38:55;;;;;;;;;;;;;;;;;;5015316;28;20348;-30
2022/06/13 00:41:23;;;;;;;;;;;;;;;;;;5015524;28;20248;-29
2022/06/13 00:43:49;;;;;;;;;;;;;;;;;;5015205;28;19967;-30
2022/06/13 00:46:15;;;;;;;;;;;;;;;;;;5015296;28;19909;-30
2022/06/13 00:48:41;;;;;;;;;;;;;;;;;;5015254;28;20418;-30
2022/06/13 00:51:07;;;;;;;;;;;;;;;;;;5015529;28;19940;-30
2022/06/13 00:53:33;;;;;;;;;;;;;;;;;;5015437;28;19913;-30
2022/06/13 00:55:59;;;;;;;;;;;;;;;;;;5015220;28;19921;-30
2022/06/13 00:58:25;;;;;;;;;;;;;;;;;;5015386;28;20260;-30
2022/06/13 01:00:51;;;;;;;;;;;;;;;;;;5015318;28;19924;-30
2022/06/13 01:03:17;;;;;;;;;;;;;;;;;;5015089;28;19914;-30
2022/06/13 01:05:43;;;;;;;;;;;;;;;;;;5013940;28;19957;-30
2022/06/13 01:08:09;;;;;;;;;;;;;;;;;;5015053;28;19913;-30
2022/06/13 01:13:20;;;;;;;;;;;;;;;;;;5015194;28;19924;-31
2022/06/13 01:15:46;;;;;;;;;;;;;;;;;;5015558;28;19914;-30
2022/06/13 01:18:12;;;;;;;;;;;;;;;;;;5015731;28;19914;-29
2022/06/13 01:20:38;;;;;;;;;;;;;;;;;;5014876;28;19920;-30
2022/06/13 01:23:04;;;;;;;;;;;;;;;;;;5015400;28;20008;-30
2022/06/13 01:25:30;;;;;;;;;;;;;;;;;;5015224;28;19952;-30
2022/06/13 01:27:56;;;;;;;;;;;;;;;;;;5019276;28;19914;-29
2022/06/13 01:30:22;;;;;;;;;;;;;;;;;;5018681;28;19914;-30
2022/06/13 01:32:51;;;;;;;;;;;;;;;;;;5019086;28;20329;-30
2022/06/13 01:35:17;;;;;;;;;;;;;;;;;;5018546;28;19917;-30
2022/06/13 01:37:43;;;;;;;;;;;;;;;;;;5018544;28;19917;-30
2022/06/13 01:40:09;;;;;;;;;;;;;;;;;;5018418;28;19921;-30
2022/06/13 01:42:35;;;;;;;;;;;;;;;;;;5018664;28;19913;-30
2022/06/13 01:45:02;;;;;;;;;;;;;;;;;;5018624;28;19914;-30
2022/06/13 01:47:28;;;;;;;;;;;;;;;;;;5018350;28;20344;-30
2022/06/13 01:49:54;;;;;;;;;;;;;;;;;;5018303;28;19928;-29
2022/06/13 01:52:20;;;;;;;;;;;;;;;;;;5018435;28;19914;-30
2022/06/13 01:54:46;;;;;;;;;;;;;;;;;;5018209;28;19914;-30
2022/06/13 01:57:12;;;;;;;;;;;;;;;;;;5018439;28;20005;-30
2022/06/13 01:59:38;;;;;;;;;;;;;;;;;;5018348;28;19949;-30
2022/06/13 02:02:04;;;;;;;;;;;;;;;;;;5017948;28;19917;-30
2022/06/13 02:04:30;;;;;;;;;;;;;;;;;;5018308;28;20337;-30
2022/06/13 02:06:56;;;;;;;;;;;;;;;;;;5017813;28;19928;-30
2022/06/13 02:09:22;;;;;;;;;;;;;;;;;;5018220;28;19920;-30
2022/06/13 02:11:48;;;;;;;;;;;;;;;;;;5018155;28;20000;-29
2022/06/13 02:14:14;;;;;;;;;;;;;;;;;;5017825;28;19945;-30
2022/06/13 02:16:40;;;;;;;;;;;;;;;;;;5017778;28;20342;-30
2022/06/13 02:19:06;;;;;;;;;;;;;;;;;;5018021;28;19916;-30
2022/06/13 02:21:32;;;;;;;;;;;;;;;;;;5017682;28;19971;-30
2022/06/13 02:23:58;;;;;;;;;;;;;;;;;;5017602;28;19913;-30
2022/06/13 02:26:24;;;;;;;;;;;;;;;;;;5017564;28;19913;-30
2022/06/13 02:28:50;;;;;;;;;;;;;;;;;;5017602;28;19917;-30
2022/06/13 02:31:16;;;;;;;;;;;;;;;;;;5017832;28;19996;-29
2022/06/13 02:33:42;;;;;;;;;;;;;;;;;;5017392;28;19963;-30
2022/06/13 02:36:08;;;;;;;;;;;;;;;;;;5017450;28;19914;-30
2022/06/13 02:38:34;;;;;;;;;;;;;;;;;;5017195;28;20238;-30
2022/06/13 02:41:00;;;;;;;;;;;;;;;;;;5016317;28;20008;-30
2022/06/13 02:43:26;;;;;;;;;;;;;;;;;;5017513;28;19913;-30
2022/06/13 02:45:52;;;;;;;;;;;;;;;;;;5017327;28;20348;-30
2022/06/13 02:48:18;;;;;;;;;;;;;;;;;;5017742;28;19913;-30
2022/06/13 02:50:44;;;;;;;;;;;;;;;;;;5017404;28;19984;-29
2022/06/13 02:53:10;;;;;;;;;;;;;;;;;;5017285;28;19913;-30
2022/06/13 02:55:40;;;;;;;;;;;;;;;;;;5018179;28;20278;-30
2022/06/13 02:58:06;;;;;;;;;;;;;;;;;;5017030;28;19913;-30
2022/06/13 03:00:32;;;;;;;;;;;;;;;;;;5016874;28;19991;-30
2022/06/13 03:02:59;;;;;;;;;;;;;;;;;;5017099;28;20268;-30
2022/06/13 03:05:25;;;;;;;;;;;;;;;;;;5016648;28;19921;-29
2022/06/13 03:07:51;;;;;;;;;;;;;;;;;;5017126;28;20422;-29
2022/06/13 03:10:17;;;;;;;;;;;;;;;;;;5016792;28;19921;-30
2022/06/13 03:12:43;;;;;;;;;;;;;;;;;;5016671;28;19956;-30
2022/06/13 03:15:09;;;;;;;;;;;;;;;;;;5016992;28;20031;-30
2022/06/13 03:17:36;;;;;;;;;;;;;;;;;;5016707;28;20268;-30
2022/06/13 03:20:02;;;;;;;;;;;;;;;;;;5016844;28;19909;-29
2022/06/13 03:22:28;;;;;;;;;;;;;;;;;;5016437;28;20393;-30
2022/06/13 03:24:54;;;;;;;;;;;;;;;;;;5016819;28;19924;-30
2022/06/13 03:27:20;;;;;;;;;;;;;;;;;;5016495;28;20000;-30
2022/06/13 03:29:46;;;;;;;;;;;;;;;;;;5016708;28;19909;-30
2022/06/13 03:32:12;;;;;;;;;;;;;;;;;;5016694;28;19936;-29
2022/06/13 03:34:38;;;;;;;;;;;;;;;;;;5016371;28;19950;-30
2022/06/13 03:37:04;;;;;;;;;;;;;;;;;;5016253;28;19913;-29
2022/06/13 03:39:30;;;;;;;;;;;;;;;;;;5016168;28;19975;-30
2022/06/13 03:41:56;;;;;;;;;;;;;;;;;;5016582;28;20320;-30
2022/06/13 03:44:22;;;;;;;;;;;;;;;;;;5016147;28;20341;-30
2022/06/13 03:46:48;;;;;;;;;;;;;;;;;;5016682;28;20202;-29
2022/06/13 03:49:14;;;;;;;;;;;;;;;;;;5015460;28;19916;-30
2022/06/13 03:51:40;;;;;;;;;;;;;;;;;;5015997;28;20269;-30
2022/06/13 03:54:06;;;;;;;;;;;;;;;;;;5016452;28;19920;-30
2022/06/13 03:56:32;;;;;;;;;;;;;;;;;;5015865;28;19910;-30
2022/06/13 03:58:58;;;;;;;;;;;;;;;;;;5016027;28;19928;-30
2022/06/13 04:01:24;;;;;;;;;;;;;;;;;;5016239;28;19917;-30
2022/06/13 04:03:50;;;;;;;;;;;;;;;;;;5015488;28;20371;-30
2022/06/13 04:06:16;;;;;;;;;;;;;;;;;;5015340;28;20015;-30
2022/06/13 04:08:42;;;;;;;;;;;;;;;;;;5015544;28;19924;-30
2022/06/13 04:11:09;;;;;;;;;;;;;;;;;;5015759;28;19917;-29
2022/06/13 04:13:34;;;;;;;;;;;;;;;;;;5015394;28;19924;-29
2022/06/13 04:16:00;;;;;;;;;;;;;;;;;;5015809;28;20385;-30
2022/06/13 04:18:26;;;;;;;;;;;;;;;;;;5015414;28;19956;-30
2022/06/13 04:20:53;;;;;;;;;;;;;;;;;;5015242;28;19956;-30
2022/06/13 04:23:19;;;;;;;;;;;;;;;;;;5015735;28;19996;-29
2022/06/13 04:25:45;;;;;;;;;;;;;;;;;;5015334;28;20349;-30
2022/06/13 04:28:10;;;;;;;;;;;;;;;;;;5015894;28;19913;-30
2022/06/13 04:30:36;;;;;;;;;;;;;;;;;;5015188;28;19949;-29
2022/06/13 04:33:02;;;;;;;;;;;;;;;;;;5015113;28;19913;-30
2022/06/13 04:35:28;;;;;;;;;;;;;;;;;;5015112;28;19910;-29
2022/06/13 04:37:54;;;;;;;;;;;;;;;;;;5015424;28;20336;-29
2022/06/13 04:40:20;;;;;;;;;;;;;;;;;;5015177;28;19913;-29
2022/06/13 04:42:46;;;;;;;;;;;;;;;;;;5015012;28;19920;-29
2022/06/13 04:45:12;;;;;;;;;;;;;;;;;;5015172;28;19917;-29
2022/06/13 04:47:38;;;;;;;;;;;;;;;;;;5015143;28;19913;-30
2022/06/13 04:50:04;;;;;;;;;;;;;;;;;;5015147;28;20272;-29
2022/06/13 04:52:30;;;;;;;;;;;;;;;;;;5014971;28;19996;-30
2022/06/13 04:54:59;;;;;;;;;;;;;;;;;;5014129;28;19991;-30
2022/06/13 04:57:25;;;;;;;;;;;;;;;;;;5015563;28;20194;-30
2022/06/13 04:59:51;;;;;;;;;;;;;;;;;;5016156;28;19909;-29
2022/06/13 05:02:17;;;;;;;;;;;;;;;;;;5018838;28;19975;-29
2022/06/13 05:04:43;;;;;;;;;;;;;;;;;;5020105;28;20008;-30
2022/06/13 05:07:09;;;;;;;;;;;;;;;;;;5018784;28;19921;-30
2022/06/13 05:09:35;;;;;;;;;;;;;;;;;;5019426;28;19924;-29
2022/06/13 05:12:04;;;;;;;;;;;;;;;;;;5018780;28;20059;-30
2022/06/13 05:14:30;;;;;;;;;;;;;;;;;;5018806;28;20252;-29
2022/06/13 05:16:56;;;;;;;;;;;;;;;;;;5019294;28;19914;-30
2022/06/13 05:19:22;;;;;;;;;;;;;;;;;;5018648;28;19920;-29
2022/06/13 05:21:48;;;;;;;;;;;;;;;;;;5018588;28;19940;-29
2022/06/13 05:24:14;;;;;;;;;;;;;;;;;;5018598;28;20337;-29
2022/06/13 05:26:40;;;;;;;;;;;;;;;;;;5018580;28;19980;-29
2022/06/13 05:29:06;;;;;;;;;;;;;;;;;;5018771;28;19910;-29
2022/06/13 05:31:32;;;;;;;;;;;;;;;;;;5018627;28;19914;-30
2022/06/13 05:33:58;;;;;;;;;;;;;;;;;;5018217;28;19920;-30
2022/06/13 05:36:24;;;;;;;;;;;;;;;;;;5018245;28;20341;-30
2022/06/13 05:38:50;;;;;;;;;;;;;;;;;;5018397;28;19971;-29
2022/06/13 05:41:16;;;;;;;;;;;;;;;;;;5018797;28;19925;-30
2022/06/13 05:43:42;;;;;;;;;;;;;;;;;;5018938;28;19917;-30
2022/06/13 05:46:08;;;;;;;;;;;;;;;;;;5018169;28;19960;-29
2022/06/13 05:48:34;;;;;;;;;;;;;;;;;;5018455;28;19956;-30
2022/06/13 05:51:00;;;;;;;;;;;;;;;;;;5018069;28;19917;-29
2022/06/13 05:53:26;;;;;;;;;;;;;;;;;;5017929;28;19910;-30
2022/06/13 05:55:52;;;;;;;;;;;;;;;;;;5018212;28;19914;-30
2022/06/13 05:58:18;;;;;;;;;;;;;;;;;;5017991;28;20419;-30
2022/06/13 06:03:26;;;;;;;;;;;;;;;;;;5294912;23;19979;-25
2022/06/13 06:05:53;;;;;;;;;;;;;;;;;;5017018;28;19983;-24
2022/06/13 06:08:18;;;;;;;;;;;;;;;;;;5017826;28;19924;-25
2022/06/13 06:10:44;;;;;;;;;;;;;;;;;;5017708;28;19910;-26
2022/06/13 06:13:10;;;;;;;;;;;;;;;;;;5017078;28;19952;-26
2022/06/13 06:15:36;;;;;;;;;;;;;;;;;;5017743;28;20000;-26
2022/06/13 06:18:02;;;;;;;;;;;;;;;;;;5016778;28;19913;-25
2022/06/13 06:20:28;;;;;;;;;;;;;;;;;;5017625;28;19914;-26
2022/06/13 06:22:55;;;;;;;;;;;;;;;;;;5016522;28;20360;-25
2022/06/13 06:25:22;;;;;;;;;;;;;;;;;;5017834;28;20251;-25
2022/06/13 06:27:48;;;;;;;;;;;;;;;;;;5018009;28;19913;-26
2022/06/13 06:30:14;;;;;;;;;;;;;;;;;;5017465;28;19909;-25
2022/06/13 06:32:40;;;;;;;;;;;;;;;;;;5017864;28;19913;-25
2022/06/13 06:35:06;;;;;;;;;;;;;;;;;;5016475;28;19910;-25
2022/06/13 06:37:32;;;;;;;;;;;;;;;;;;5016358;28;19914;-25
2022/06/13 06:39:58;;;;;;;;;;;;;;;;;;5017006;28;19920;-25
2022/06/13 06:42:24;;;;;;;;;;;;;;;;;;5017039;28;20004;-25
2022/06/13 06:44:50;;;;;;;;;;;;;;;;;;5017546;28;19959;-25
2022/06/13 06:47:16;;;;;;;;;;;;;;;;;;5016154;28;19913;-25
2022/06/13 06:49:42;;;;;;;;;;;;;;;;;;5016102;28;19914;-26
2022/06/13 06:52:09;;;;;;;;;;;;;;;;;;5016904;28;20271;-25
2022/06/13 07:00:04;;;;;;;;;;;;;;;;;;5017105;28;20012;-25
2022/06/13 07:02:30;;;;;;;;;;;;;;;;;;5015521;28;20364;-25
2022/06/13 07:04:56;;;;;;;;;;;;;;;;;;5017066;28;19965;-26
2022/06/13 07:07:22;;;;;;;;;;;;;;;;;;5016945;28;19928;-25
2022/06/13 07:09:48;;;;;;;;;;;;;;;;;;5017276;28;20419;-25
2022/06/13 07:12:14;;;;;;;;;;;;;;;;;;5016530;28;19914;-25
2022/06/13 07:14:40;;;;;;;;;;;;;;;;;;5015906;28;20327;-30
2022/06/13 07:17:06;;;;;;;;;;;;;;;;;;5017038;28;20245;-25
2022/06/13 07:19:32;;;;;;;;;;;;;;;;;;5016483;28;19916;-25
2022/06/13 07:21:58;;;;;;;;;;;;;;;;;;5016364;28;19928;-26
2022/06/13 07:24:24;;;;;;;;;;;;;;;;;;5015502;28;20066;-26
2022/06/13 07:26:51;;;;;;;;;;;;;;;;;;5015496;28;19910;-25
2022/06/13 07:29:17;;;;;;;;;;;;;;;;;;5016417;28;19913;-26
2022/06/13 07:31:43;;;;;;;;;;;;;;;;;;5017068;28;19913;-25
2022/06/13 07:34:09;;;;;;;;;;;;;;;;;;5016290;28;20004;-25
2022/06/13 07:36:35;;;;;;;;;;;;;;;;;;5015325;28;19984;-26
2022/06/13 07:39:01;;;;;;;;;;;;;;;;;;5016697;28;19940;-26
2022/06/13 07:41:27;;;;;;;;;;;;;;;;;;5015112;28;20332;-25
2022/06/13 07:43:53;;;;;;;;;;;;;;;;;;5016166;28;20237;-26
2022/06/13 07:46:19;;;;;;;;;;;;;;;;;;5015043;28;19968;-26
2022/06/13 07:48:48;;;;;;;;;;;;;;;;;;5016004;28;19960;-25
2022/06/13 07:51:14;;;;;;;;;;;;;;;;;;5015900;28;19909;-26
2022/06/13 07:53:39;;;;;;;;;;;;;;;;;;5015940;28;19917;-26
2022/06/13 07:56:06;;;;;;;;;;;;;;;;;;5016239;28;19909;-25
2022/06/13 07:58:32;;;;;;;;;;;;;;;;;;5016066;28;19913;-26
2022/06/13 08:00:58;;;;;;;;;;;;;;;;;;5016290;28;19940;-25
2022/06/13 08:03:24;;;;;;;;;;;;;;;;;;5014507;28;19921;-25
2022/06/13 08:05:50;;;;;;;;;;;;;;;;;;5014779;28;20075;-25
2022/06/13 08:08:17;;;;;;;;;;;;;;;;;;5015546;28;19913;-26
2022/06/13 08:10:43;;;;;;;;;;;;;;;;;;5015636;28;19970;-25
2022/06/13 08:13:11;;;;;;;;;;;;;;;;;;5016044;28;19980;-26
2022/06/13 08:15:37;;;;;;;;;;;;;;;;;;5015870;28;19913;-26
2022/06/13 08:18:03;;;;;;;;;;;;;;;;;;5015765;28;19913;-25
2022/06/13 08:20:29;;;;;;;;;;;;;;;;;;5015331;28;20008;-26
2022/06/13 08:22:58;;;;;;;;;;;;;;;;;;5015385;28;19992;-25
2022/06/13 08:25:26;;;;;;;;;;;;;;;;;;5015890;28;19963;-25
2022/06/13 08:27:52;;;;;;;;;;;;;;;;;;5015338;28;20413;-25
2022/06/13 08:30:18;;;;;;;;;;;;;;;;;;5015164;28;19945;-26
2022/06/13 08:32:44;;;;;;;;;;;;;;;;;;5015330;28;20323;-26
2022/06/13 08:35:10;;;;;;;;;;;;;;;;;;5015202;28;19915;-26
2022/06/13 08:37:36;;;;;;;;;;;;;;;;;;5015261;28;19960;-26
2022/06/13 08:40:02;;;;;;;;;;;;;;;;;;5015755;28;19910;-25
2022/06/13 08:42:28;;;;;;;;;;;;;;;;;;5014978;28;19979;-25
2022/06/13 08:44:54;;;;;;;;;;;;;;;;;;5015199;28;19913;-25
2022/06/13 08:47:20;;;;;;;;;;;;;;;;;;5014262;28;20240;-25
2022/06/13 08:49:46;;;;;;;;;;;;;;;;;;5015529;28;19909;-25
2022/06/13 08:52:12;;;;;;;;;;;;;;;;;;5015337;28;19960;-25
2022/06/13 08:54:38;;;;;;;;;;;;;;;;;;5015403;28;19968;-26
2022/06/13 08:57:04;;;;;;;;;;;;;;;;;;5015116;28;19948;-25
2022/06/13 08:59:34;;;;;;;;;;;;;;;;;;5015152;28;19944;-25
2022/06/13 09:02:00;;;;;;;;;;;;;;;;;;5014831;28;19932;-26
2022/06/13 09:04:26;;;;;;;;;;;;;;;;;;5014930;28;19934;-25
2022/06/13 09:06:52;;;;;;;;;;;;;;;;;;5015261;28;20427;-25
2022/06/13 09:09:18;;;;;;;;;;;;;;;;;;5015291;28;19909;-26
2022/06/13 09:11:44;;;;;;;;;;;;;;;;;;5015020;28;20356;-26
2022/06/13 09:14:10;;;;;;;;;;;;;;;;;;5014825;28;19914;-26
2022/06/13 09:16:36;;;;;;;;;;;;;;;;;;5013882;28;19972;-25
2022/06/13 09:19:02;;;;;;;;;;;;;;;;;;5014827;28;19948;-25
2022/06/13 09:21:28;;;;;;;;;;;;;;;;;;5014697;28;19918;-25
2022/06/13 09:23:54;;;;;;;;;;;;;;;;;;5014823;28;19921;-25
2022/06/13 09:26:20;;;;;;;;;;;;;;;;;;5014805;28;20241;-26
2022/06/13 09:28:46;;;;;;;;;;;;;;;;;;5014731;28;19957;-25
2022/06/13 09:31:13;;;;;;;;;;;;;;;;;;5015002;28;20412;-25
2022/06/13 09:33:39;;;;;;;;;;;;;;;;;;5014517;28;19949;-25
2022/06/13 09:36:05;;;;;;;;;;;;;;;;;;5014659;28;19972;-25
2022/06/13 09:38:31;;;;;;;;;;;;;;;;;;5013660;28;19921;-25
2022/06/13 09:40:57;;;;;;;;;;;;;;;;;;5014642;28;19913;-25
2022/06/13 09:43:23;;;;;;;;;;;;;;;;;;5014639;28;20358;-25
2022/06/13 09:45:49;;;;;;;;;;;;;;;;;;5014935;28;19916;-25
2022/06/13 09:48:15;;;;;;;;;;;;;;;;;;5017670;28;19935;-25
2022/06/13 09:50:44;;;;;;;;;;;;;;;;;;5018552;28;20399;-25
2022/06/13 09:53:10;;;;;;;;;;;;;;;;;;5017143;28;19917;-25
2022/06/13 09:55:36;;;;;;;;;;;;;;;;;;5018178;28;19910;-25
2022/06/13 09:58:02;;;;;;;;;;;;;;;;;;5018230;28;20367;-25
2022/06/13 10:00:28;;;;;;;;;;;;;;;;;;5017910;28;19913;-25
2022/06/13 10:02:54;;;;;;;;;;;;;;;;;;5018040;28;19922;-25
2022/06/13 10:05:20;;;;;;;;;;;;;;;;;;5017084;28;20255;-25
2022/06/13 10:07:46;;;;;;;;;;;;;;;;;;5017906;28;19914;-25
2022/06/13 10:10:12;;;;;;;;;;;;;;;;;;5017678;28;19916;-25
2022/06/13 10:12:38;;;;;;;;;;;;;;;;;;5017953;28;19913;-25
2022/06/13 10:15:04;;;;;;;;;;;;;;;;;;5017689;28;19909;-25
2022/06/13 10:17:30;;;;;;;;;;;;;;;;;;5017823;28;19917;-26
2022/06/13 10:19:56;;;;;;;;;;;;;;;;;;5017563;28;19910;-25
2022/06/13 10:22:22;;;;;;;;;;;;;;;;;;5017432;28;20375;-25
2022/06/13 10:24:48;;;;;;;;;;;;;;;;;;5017446;28;19913;-25
2022/06/13 10:27:14;;;;;;;;;;;;;;;;;;5016562;28;19921;-26
2022/06/13 10:29:40;;;;;;;;;;;;;;;;;;5017417;28;20330;-25
2022/06/13 10:32:06;;;;;;;;;;;;;;;;;;5016272;28;19913;-26
2022/06/13 10:34:32;;;;;;;;;;;;;;;;;;5017315;28;19913;-25
2022/06/13 10:36:58;;;;;;;;;;;;;;;;;;5017294;28;19913;-26
2022/06/13 10:39:24;;;;;;;;;;;;;;;;;;5017197;28;19933;-25
2022/06/13 10:41:50;;;;;;;;;;;;;;;;;;5017161;28;19932;-25
2022/06/13 10:44:17;;;;;;;;;;;;;;;;;;5017119;28;19913;-26
2022/06/13 10:46:43;;;;;;;;;;;;;;;;;;5017610;28;20401;-25
2022/06/13 10:49:09;;;;;;;;;;;;;;;;;;5017084;28;20107;-25
2022/06/13 10:51:35;;;;;;;;;;;;;;;;;;5016945;28;19989;-25
2022/06/13 10:54:20;;;;;;;;;;;;;;;;;;5015939;28;19913;-25
2022/06/13 10:56:47;;;;;;;;;;;;;;;;;;5017603;28;19924;-26
2022/06/13 10:59:13;;;;;;;;;;;;;;;;;;5016637;28;19915;-26
2022/06/13 11:01:39;;;;;;;;;;;;;;;;;;5016663;28;19918;-25
2022/06/13 11:04:06;;;;;;;;;;;;;;;;;;5015550;28;20000;-25
2022/06/13 11:06:32;;;;;;;;;;;;;;;;;;5016754;28;19917;-25
2022/06/13 11:08:58;;;;;;;;;;;;;;;;;;5016763;28;19913;-26
2022/06/13 11:11:24;;;;;;;;;;;;;;;;;;5017254;28;19917;-26
2022/06/13 11:13:50;;;;;;;;;;;;;;;;;;5016974;28;20354;-27
2022/06/13 11:24:30;;;;;;;;;;;;;;;;;;5016380;28;19933;-24
2022/06/13 11:29:41;;;;;;;;;;;;;;;;;;5016403;28;19929;-25
2022/06/13 11:32:07;;;;;;;;;;;;;;;;;;5016599;28;19917;-25
2022/06/13 11:34:33;;;;;;;;;;;;;;;;;;5015250;28;19913;-25
2022/06/13 11:36:59;;;;;;;;;;;;;;;;;;5016251;28;19924;-24
2022/06/13 11:39:25;;;;;;;;;;;;;;;;;;5016311;28;19909;-25
2022/06/13 11:41:51;;;;;;;;;;;;;;;;;;5015996;28;19921;-25
2022/06/13 11:44:17;;;;;;;;;;;;;;;;;;5015132;28;19940;-24
2022/06/13 11:46:43;;;;;;;;;;;;;;;;;;5016329;28;19905;-24
2022/06/13 11:49:09;;;;;;;;;;;;;;;;;;5016237;28;20316;-24
2022/06/13 11:51:35;;;;;;;;;;;;;;;;;;5016490;28;19920;-25
2022/06/13 11:54:01;;;;;;;;;;;;;;;;;;5015874;28;19953;-35
2022/06/13 11:56:27;;;;;;;;;;;;;;;;;;5015980;28;20284;-25
2022/06/13 11:58:53;;;;;;;;;;;;;;;;;;5016097;28;19987;-25
2022/06/13 12:01:19;;;;;;;;;;;;;;;;;;5016328;28;19917;-25
2022/06/13 12:03:45;;;;;;;;;;;;;;;;;;5015406;28;19952;-25
2022/06/13 12:06:11;;;;;;;;;;;;;;;;;;5016221;28;19910;-25
2022/06/13 12:08:37;;;;;;;;;;;;;;;;;;5015675;28;20375;-25
2022/06/13 12:11:04;;;;;;;;;;;;;;;;;;5015238;28;19910;-25
2022/06/13 12:13:29;;;;;;;;;;;;;;;;;;5014582;28;20277;-25
2022/06/13 12:15:55;;;;;;;;;;;;;;;;;;5016137;28;19992;-26
2022/06/13 12:18:21;;;;;;;;;;;;;;;;;;5015536;28;19913;-25
2022/06/13 12:20:48;;;;;;;;;;;;;;;;;;5015492;28;20020;-26
2022/06/13 12:23:13;;;;;;;;;;;;;;;;;;5015317;28;19913;-26
2022/06/13 12:25:40;;;;;;;;;;;;;;;;;;5015416;28;20390;-27
2022/06/13 12:28:06;;;;;;;;;;;;;;;;;;5015301;28;19914;-26
2022/06/13 12:30:31;;;;;;;;;;;;;;;;;;5015240;28;19916;-26
2022/06/13 12:32:57;;;;;;;;;;;;;;;;;;5015465;28;20004;-26
2022/06/13 12:35:23;;;;;;;;;;;;;;;;;;5015770;28;19920;-26
2022/06/13 12:37:49;;;;;;;;;;;;;;;;;;5015227;28;20004;-26
2022/06/13 12:40:15;;;;;;;;;;;;;;;;;;5015569;28;20003;-26
2022/06/13 12:42:41;;;;;;;;;;;;;;;;;;5014065;28;20360;-26
2022/06/13 12:45:07;;;;;;;;;;;;;;;;;;5015335;28;19960;-26
2022/06/13 12:47:33;;;;;;;;;;;;;;;;;;5014939;28;19971;-26
2022/06/13 12:49:59;;;;;;;;;;;;;;;;;;5015521;28;19917;-26
2022/06/13 12:52:25;;;;;;;;;;;;;;;;;;5013920;28;20345;-26
2022/06/13 12:54:51;;;;;;;;;;;;;;;;;;5014767;28;20263;-26
2022/06/13 12:57:19;;;;;;;;;;;;;;;;;;5014855;28;20260;-26
2022/06/13 12:59:46;;;;;;;;;;;;;;;;;;5014813;28;19936;-27
2022/06/13 13:02:12;;;;;;;;;;;;;;;;;;5014701;28;19914;-26
2022/06/13 13:04:38;;;;;;;;;;;;;;;;;;5014624;28;20339;-27
2022/06/13 13:07:04;;;;;;;;;;;;;;;;;;5015313;28;19909;-25
2022/06/13 13:09:30;;;;;;;;;;;;;;;;;;5014703;28;19928;-25
2022/06/13 13:11:56;;;;;;;;;;;;;;;;;;5013713;28;19936;-25
2022/06/13 13:14:22;;;;;;;;;;;;;;;;;;5014779;28;19910;-25
2022/06/13 13:16:48;;;;;;;;;;;;;;;;;;5014711;28;19920;-25
2022/06/13 13:19:14;;;;;;;;;;;;;;;;;;5014751;28;19909;-25
2022/06/13 13:21:40;;;;;;;;;;;;;;;;;;5015081;28;20017;-24
2022/06/13 13:24:07;;;;;;;;;;;;;;;;;;5019027;28;19924;-24
2022/06/13 13:26:33;;;;;;;;;;;;;;;;;;5018318;28;20008;-24
2022/06/13 13:28:59;;;;;;;;;;;;;;;;;;5018256;28;20387;-24
2022/06/13 13:31:25;;;;;;;;;;;;;;;;;;5018363;28;19917;-26
2022/06/13 13:33:51;;;;;;;;;;;;;;;;;;5017307;28;19924;-25
2022/06/13 13:36:17;;;;;;;;;;;;;;;;;;5017409;28;20256;-25
2022/06/13 13:38:43;;;;;;;;;;;;;;;;;;5018553;28;20229;-25
2022/06/13 13:41:09;;;;;;;;;;;;;;;;;;5018210;28;19924;-25
2022/06/13 13:43:35;;;;;;;;;;;;;;;;;;5018165;28;19913;-25
2022/06/13 13:46:01;;;;;;;;;;;;;;;;;;5018272;28;20259;-25
2022/06/13 13:48:28;;;;;;;;;;;;;;;;;;5018114;28;19921;-25
2022/06/13 13:50:54;;;;;;;;;;;;;;;;;;5017161;28;19909;-25
2022/06/13 13:53:20;;;;;;;;;;;;;;;;;;5018181;28;20271;-24
2022/06/13 13:55:46;;;;;;;;;;;;;;;;;;5017091;28;19916;-24
2022/06/13 13:58:13;;;;;;;;;;;;;;;;;;5018675;28;19913;-25
2022/06/13 14:00:38;;;;;;;;;;;;;;;;;;5017870;28;19968;-25
2022/06/13 14:03:04;;;;;;;;;;;;;;;;;;5017729;28;19925;-25
2022/06/13 14:05:30;;;;;;;;;;;;;;;;;;5017778;28;19909;-25
2022/06/13 14:07:57;;;;;;;;;;;;;;;;;;5017784;28;19913;-25
2022/06/13 14:10:23;;;;;;;;;;;;;;;;;;5017722;28;19967;-25
2022/06/13 14:12:49;;;;;;;;;;;;;;;;;;5017673;28;19924;-25
2022/06/13 14:15:15;;;;;;;;;;;;;;;;;;5017587;28;19909;-25
2022/06/13 14:17:41;;;;;;;;;;;;;;;;;;5017726;28;19971;-25
2022/06/13 14:20:08;;;;;;;;;;;;;;;;;;5017694;28;19913;-25
2022/06/13 14:22:34;;;;;;;;;;;;;;;;;;5017515;28;19928;-26
2022/06/13 14:25:00;;;;;;;;;;;;;;;;;;5017511;28;20259;-25
2022/06/13 14:27:26;;;;;;;;;;;;;;;;;;5017637;28;19960;-25
2022/06/13 14:31:03;;;;;;;;;;;;;;;;;;5017747;28;19913;-25
2022/06/13 14:32:38;;;;;;;;;;;;;;;;;;5016701;28;19917;-26
2022/06/13 14:35:15;;;;;;;;;;;;;;;;;;5017368;28;20249;-26
2022/06/13 14:37:41;;;;;;;;;;;;;;;;;;5016305;28;19971;-26
2022/06/13 14:40:07;;;;;;;;;;;;;;;;;;5017492;28;19913;-25
2022/06/13 14:42:33;;;;;;;;;;;;;;;;;;5016991;28;19917;-26
2022/06/13 14:44:59;;;;;;;;;;;;;;;;;;5017318;28;19909;-25
2022/06/13 14:47:25;;;;;;;;;;;;;;;;;;5016994;28;20383;-25
2022/06/13 14:49:51;;;;;;;;;;;;;;;;;;5017085;28;19913;-25
2022/06/13 14:52:18;;;;;;;;;;;;;;;;;;5015928;28;19913;-26
2022/06/13 14:54:44;;;;;;;;;;;;;;;;;;5017244;28;19910;-26
2022/06/13 14:57:10;;;;;;;;;;;;;;;;;;5016985;28;20008;-26
2022/06/13 14:59:36;;;;;;;;;;;;;;;;;;5016755;28;19909;-25
2022/06/13 15:02:03;;;;;;;;;;;;;;;;;;5016587;28;19921;-26
2022/06/13 15:04:28;;;;;;;;;;;;;;;;;;5016605;28;20008;-26
2022/06/13 15:06:55;;;;;;;;;;;;;;;;;;5017284;28;19952;-27
2022/06/13 15:09:21;;;;;;;;;;;;;;;;;;5015825;28;20325;-24
2022/06/13 15:11:47;;;;;;;;;;;;;;;;;;5017087;28;19924;-25
2022/06/13 15:14:13;;;;;;;;;;;;;;;;;;5015609;28;19960;-25
2022/06/13 15:16:39;;;;;;;;;;;;;;;;;;5016945;28;20260;-24
2022/06/13 15:19:05;;;;;;;;;;;;;;;;;;5016613;28;19914;-25
2022/06/13 15:21:31;;;;;;;;;;;;;;;;;;5016826;28;20330;-25
2022/06/13 15:23:57;;;;;;;;;;;;;;;;;;5015491;28;20367;-25
2022/06/13 15:26:23;;;;;;;;;;;;;;;;;;5016377;28;19921;-25
2022/06/13 15:28:49;;;;;;;;;;;;;;;;;;5016451;28;20410;-24
2022/06/13 15:31:18;;;;;;;;;;;;;;;;;;5016443;28;20252;-24
2022/06/13 15:33:44;;;;;;;;;;;;;;;;;;5017018;28;19996;-25
2022/06/13 15:36:10;;;;;;;;;;;;;;;;;;5016338;28;19983;-24
2022/06/13 15:38:36;;;;;;;;;;;;;;;;;;5016101;28;19914;-25
2022/06/13 15:41:03;;;;;;;;;;;;;;;;;;5016042;28;19913;-26
2022/06/13 15:43:29;;;;;;;;;;;;;;;;;;5016202;28;19914;-25
2022/06/13 15:45:55;;;;;;;;;;;;;;;;;;5015252;28;19996;-25
2022/06/13 15:48:21;;;;;;;;;;;;;;;;;;5016205;28;19945;-25
2022/06/13 15:50:47;;;;;;;;;;;;;;;;;;5016741;28;19909;-26
2022/06/13 15:53:13;;;;;;;;;;;;;;;;;;5016390;28;19971;-26
2022/06/13 15:55:39;;;;;;;;;;;;;;;;;;5015854;28;20454;-25
2022/06/13 15:58:05;;;;;;;;;;;;;;;;;;5015698;28;19920;-26
2022/06/13 16:00:32;;;;;;;;;;;;;;;;;;5016088;28;20420;-26
2022/06/13 16:02:58;;;;;;;;;;;;;;;;;;5015428;28;20312;-25
2022/06/13 16:05:25;;;;;;;;;;;;;;;;;;5016085;28;19909;-25
2022/06/13 16:07:51;;;;;;;;;;;;;;;;;;5015505;28;20319;-25
2022/06/13 16:10:17;;;;;;;;;;;;;;;;;;5015827;28;19909;-26
2022/06/13 16:12:43;;;;;;;;;;;;;;;;;;5014482;28;19920;-25
2022/06/13 16:15:09;;;;;;;;;;;;;;;;;;5015352;28;19925;-26
2022/06/13 16:17:35;;;;;;;;;;;;;;;;;;5015646;28;19913;-25
2022/06/13 16:20:01;;;;;;;;;;;;;;;;;;5015642;28;19914;-26
2022/06/13 16:22:27;;;;;;;;;;;;;;;;;;5014306;28;19918;-26
2022/06/13 16:24:54;;;;;;;;;;;;;;;;;;5015601;28;19913;-32
2022/06/13 16:27:20;;;;;;;;;;;;;;;;;;5015190;28;19917;-26
2022/06/13 16:29:46;;;;;;;;;;;;;;;;;;5014144;28;19936;-26
2022/06/13 16:32:12;;;;;;;;;;;;;;;;;;5014318;28;19913;-25
2022/06/13 16:34:38;;;;;;;;;;;;;;;;;;5015541;28;19940;-26
2022/06/13 16:37:04;;;;;;;;;;;;;;;;;;5015780;28;19910;-27
2022/06/13 16:39:30;;;;;;;;;;;;;;;;;;5015363;28;19924;-26
2022/06/13 16:41:56;;;;;;;;;;;;;;;;;;5015018;28;19924;-26
2022/06/13 16:44:22;;;;;;;;;;;;;;;;;;5015746;28;20309;-26
2022/06/13 16:46:48;;;;;;;;;;;;;;;;;;5015121;28;19948;-26
2022/06/13 16:49:15;;;;;;;;;;;;;;;;;;5015136;28;19996;-25
2022/06/13 16:51:41;;;;;;;;;;;;;;;;;;5014948;28;19921;-26
2022/06/13 16:54:07;;;;;;;;;;;;;;;;;;5015040;28;19967;-26
2022/06/13 16:56:33;;;;;;;;;;;;;;;;;;5017602;28;19909;-26
2022/06/13 16:59:06;;;;;;;;;;;;;;;;;;5019198;28;19909;-26
2022/06/13 17:01:32;;;;;;;;;;;;;;;;;;5019595;28;19975;-26